Time;durP1;ratioP1;P1;durP2;ratioP2;P2;SDS_P1;SDS_P2;PMS_P1;PMS_P2;Temp;Humidity;BMP_temperature;BMP_pressure;BME280_temperature;BME280_humidity;BME280_pressure;Samples;Min_cycle;Max_cycle;Signal;HPM_P1;HPM_P2
2021/12/20 00:01:33;;;;;;;2.28;1.88;;;7.50;99.90;;;;;;5051362;28;20208;-72
2021/12/20 00:04:01;;;;;;;2.00;1.55;;;7.50;99.90;;;;;;5034228;28;20714;-72
2021/12/20 00:06:29;;;;;;;1.98;1.70;;;7.50;99.90;;;;;;5051541;28;20189;-73
2021/12/20 00:08:59;;;;;;;2.97;2.10;;;7.50;99.90;;;;;;5022408;28;20224;-73
2021/12/20 00:11:28;;;;;;;2.50;2.30;;;7.50;99.90;;;;;;5008457;28;20213;-72
2021/12/20 00:13:56;;;;;;;2.28;2.08;;;7.50;99.90;;;;;;5030721;28;20569;-72
2021/12/20 00:16:24;;;;;;;2.88;1.88;;;7.50;99.90;;;;;;5031588;28;20202;-73
2021/12/20 00:18:52;;;;;;;2.03;1.83;;;7.50;99.90;;;;;;5031130;28;20761;-72
2021/12/20 00:21:20;;;;;;;3.08;2.35;;;7.50;99.90;;;;;;5032057;28;20244;-72
2021/12/20 00:23:48;;;;;;;2.25;2.05;;;7.50;99.90;;;;;;5031034;28;20229;-72
2021/12/20 00:26:18;;;;;;;2.53;2.05;;;7.50;99.90;;;;;;5016138;28;20200;-72
2021/12/20 00:28:46;;;;;;;1.60;1.50;;;7.50;99.90;;;;;;5030680;28;20355;-72
2021/12/20 00:31:14;;;;;;;2.28;2.05;;;7.50;99.90;;;;;;5032020;28;20215;-70
2021/12/20 00:33:42;;;;;;;2.60;2.40;;;7.50;99.90;;;;;;5033099;28;20225;-72
2021/12/20 00:36:10;;;;;;;4.32;1.70;;;7.50;99.90;;;;;;5031431;28;20547;-72
2021/12/20 00:41:22;;;;;;;2.00;1.50;;;7.50;99.90;;;;;;4975893;28;20703;-72
2021/12/20 00:43:50;;;;;;;2.65;2.00;;;7.50;99.90;;;;;;5009144;28;20228;-72
2021/12/20 00:46:18;;;;;;;2.30;2.10;;;7.50;99.90;;;;;;5030830;28;20188;-73
2021/12/20 00:48:46;;;;;;;2.05;1.70;;;7.50;99.90;;;;;;5031176;28;20628;-72
2021/12/20 00:51:15;;;;;;;3.58;1.80;;;7.50;99.90;;;;;;5015393;28;20211;-71
2021/12/20 00:53:43;;;;;;;3.85;2.00;;;7.50;99.90;;;;;;5024247;28;20236;-71
2021/12/20 00:56:11;;;;;;;1.88;1.63;;;7.50;99.90;;;;;;5030726;28;20220;-73
2021/12/20 00:58:40;;;;;;;2.10;1.95;;;7.50;99.90;;;;;;5013360;28;20233;-72
2021/12/20 01:01:10;;;;;;;2.33;1.85;;;7.50;99.90;;;;;;5031719;28;20260;-72
2021/12/20 01:03:38;;;;;;;2.58;2.10;;;7.50;99.90;;;;;;5030798;28;20222;-72
2021/12/20 01:06:06;;;;;;;2.70;2.00;;;7.50;99.90;;;;;;5031297;28;20199;-72
2021/12/20 01:08:37;;;;;;;1.92;1.70;;;7.50;99.90;;;;;;5030016;28;20228;-72
2021/12/20 01:11:06;;;;;;;2.58;2.35;;;7.50;99.90;;;;;;5031358;28;20258;-72
2021/12/20 01:13:39;;;;;;;1.98;1.50;;;7.50;99.90;;;;;;5030410;28;20259;-71
2021/12/20 01:16:12;;;;;;;2.00;1.40;;;7.50;99.90;;;;;;5023217;28;20217;-72
2021/12/20 01:18:41;;;;;;;3.03;1.90;;;7.50;99.90;;;;;;5030586;28;20225;-73
2021/12/20 01:21:09;;;;;;;2.45;1.90;;;7.50;99.90;;;;;;5013328;28;20201;-73
2021/12/20 01:23:38;;;;;;;1.95;1.85;;;7.50;99.90;;;;;;5030302;28;20231;-71
2021/12/20 01:26:06;;;;;;;1.70;1.60;;;7.50;99.90;;;;;;5031055;28;20205;-73
2021/12/20 01:28:35;;;;;;;2.60;1.77;;;7.50;99.90;;;;;;5030532;28;20256;-73
2021/12/20 01:31:03;;;;;;;2.00;1.80;;;7.50;99.90;;;;;;5030395;28;20221;-72
2021/12/20 01:33:32;;;;;;;3.50;1.98;;;7.50;99.90;;;;;;5030619;28;20220;-71
2021/12/20 01:36:01;;;;;;;2.60;2.30;;;7.50;99.90;;;;;;5030994;28;20189;-72
2021/12/20 01:38:29;;;;;;;2.75;2.55;;;7.50;99.90;;;;;;5021317;28;20222;-72
2021/12/20 01:40:57;;;;;;;1.95;1.60;;;7.50;99.90;;;;;;5028805;28;20221;-72
2021/12/20 01:43:25;;;;;;;2.20;2.00;;;7.50;99.90;;;;;;5030322;28;20224;-71
2021/12/20 01:45:53;;;;;;;2.20;2.00;;;7.50;99.90;;;;;;5022925;28;20599;-73
2021/12/20 01:48:22;;;;;;;2.67;2.33;;;7.50;99.90;;;;;;5030740;28;20676;-73
2021/12/20 01:53:52;;;;;;;3.42;2.65;;;7.50;99.90;;;;;;5034110;28;20246;-70
2021/12/20 01:56:21;;;;;;;1.77;1.60;;;7.50;99.90;;;;;;5034319;28;20240;-73
2021/12/20 01:58:49;;;;;;;4.72;2.00;;;7.50;99.90;;;;;;5033645;28;20619;-72
2021/12/20 02:01:26;;;;;;;2.22;2.03;;;7.50;99.90;;;;;;5027087;28;20233;-72
2021/12/20 02:03:59;;;;;;;2.15;2.03;;;7.50;99.90;;;;;;5033083;28;20224;-70
2021/12/20 02:06:34;;;;;;;2.17;1.80;;;7.50;99.90;;;;;;5035567;28;20217;-72
2021/12/20 02:09:05;;;;;;;1.75;1.60;;;7.50;99.90;;;;;;5033780;28;20596;-72
2021/12/20 02:11:33;;;;;;;2.55;1.40;;;7.50;99.90;;;;;;5034232;28;20221;-72
2021/12/20 02:14:02;;;;;;;3.17;1.95;;;7.50;99.90;;;;;;5033183;28;20790;-72
2021/12/20 02:16:30;;;;;;;2.67;1.92;;;7.50;99.90;;;;;;5034243;28;20198;-73
2021/12/20 02:19:02;;;;;;;2.05;1.90;;;7.50;99.90;;;;;;5033379;28;20248;-73
2021/12/20 02:21:33;;;;;;;2.10;1.92;;;7.50;99.90;;;;;;5033802;28;20220;-73
2021/12/20 02:24:02;;;;;;;1.70;1.45;;;7.50;99.90;;;;;;5025591;28;20260;-73
2021/12/20 02:26:30;;;;;;;1.95;1.85;;;7.50;99.90;;;;;;5034094;28;20545;-73
2021/12/20 02:29:04;;;;;;;3.08;1.60;;;7.50;99.90;;;;;;5032667;28;20274;-73
2021/12/20 02:39:49;;;;;;;3.00;1.90;;;7.50;99.90;;;;;;5021673;28;20243;-73
2021/12/20 02:42:22;;;;;;;2.83;2.20;;;7.50;99.90;;;;;;5034201;28;20202;-71
2021/12/20 02:45:06;;;;;;;3.35;1.92;;;7.50;99.90;;;;;;5024816;28;20230;-72
2021/12/20 02:47:37;;;;;;;2.05;1.73;;;7.50;99.90;;;;;;5033735;28;20194;-72
2021/12/20 02:50:06;;;;;;;2.20;1.55;;;7.40;99.90;;;;;;5032628;28;20598;-72
2021/12/20 02:52:36;;;;;;;2.30;1.60;;;7.50;99.90;;;;;;5033706;28;20189;-72
2021/12/20 02:55:05;;;;;;;2.47;2.00;;;7.50;99.90;;;;;;5032616;28;20283;-70
2021/12/20 02:57:34;;;;;;;2.05;1.85;;;7.40;99.90;;;;;;5016020;28;20189;-74
2021/12/20 03:00:04;;;;;;;2.75;1.90;;;7.50;99.90;;;;;;5014098;28;20243;-73
2021/12/20 03:02:33;;;;;;;1.50;1.40;;;7.50;99.90;;;;;;5033661;28;20189;-71
2021/12/20 03:05:01;;;;;;;2.47;1.80;;;7.50;99.90;;;;;;5033153;28;20243;-71
2021/12/20 03:07:37;;;;;;;1.75;1.65;;;7.50;99.90;;;;;;5038672;28;20186;-73
2021/12/20 03:10:07;;;;;;;2.28;1.98;;;7.40;99.90;;;;;;5031823;28;20228;-73
2021/12/20 03:12:36;;;;;;;1.70;1.60;;;7.50;99.90;;;;;;5047528;28;20197;-71
2021/12/20 03:15:11;;;;;;;1.83;1.70;;;7.50;99.90;;;;;;5041857;28;20279;-71
2021/12/20 03:17:40;;;;;;;3.72;2.25;;;7.50;99.90;;;;;;5051781;28;20207;-72
2021/12/20 03:20:09;;;;;;;2.55;2.00;;;7.40;99.90;;;;;;5042023;28;20226;-72
2021/12/20 03:22:37;;;;;;;3.10;2.22;;;7.50;99.90;;;;;;5026498;28;20324;-72
2021/12/20 03:25:07;;;;;;;1.63;1.52;;;7.50;99.90;;;;;;5047354;28;20724;-72
2021/12/20 03:27:36;;;;;;;3.05;2.03;;;7.40;99.90;;;;;;5039027;28;20538;-73
2021/12/20 03:30:06;;;;;;;3.72;2.10;;;7.40;99.90;;;;;;5051116;28;20223;-72
2021/12/20 03:32:34;;;;;;;1.90;1.65;;;7.40;99.90;;;;;;5038677;28;20494;-71
2021/12/20 03:35:02;;;;;;;2.50;1.60;;;7.40;99.90;;;;;;5033612;28;20358;-71
2021/12/20 03:37:30;;;;;;;3.03;2.35;;;7.40;99.90;;;;;;5052192;28;20698;-73
2021/12/20 03:39:58;;;;;;;3.58;2.63;;;7.40;99.90;;;;;;5031551;28;20703;-72
2021/12/20 03:42:29;;;;;;;3.25;1.95;;;7.40;99.90;;;;;;5039931;28;20193;-72
2021/12/20 03:44:57;;;;;;;2.97;1.70;;;7.40;99.90;;;;;;5030921;28;20222;-71
2021/12/20 03:47:25;;;;;;;2.40;2.20;;;7.40;99.90;;;;;;5040242;28;20565;-75
2021/12/20 03:49:53;;;;;;;2.38;1.75;;;7.40;99.90;;;;;;5031352;28;20221;-73
2021/12/20 03:52:21;;;;;;;1.60;1.50;;;7.40;99.90;;;;;;5052502;28;20259;-72
2021/12/20 03:54:49;;;;;;;1.40;1.30;;;7.40;99.90;;;;;;5047810;28;20274;-72
2021/12/20 03:57:17;;;;;;;2.63;1.98;;;7.40;99.90;;;;;;5019236;28;20907;-72
2021/12/20 03:59:47;;;;;;;4.75;2.00;;;7.40;99.90;;;;;;5042477;28;20229;-72
2021/12/20 04:02:18;;;;;;;2.70;1.92;;;7.40;99.90;;;;;;5043156;28;20184;-72
2021/12/20 04:04:46;;;;;;;3.15;1.95;;;7.40;99.90;;;;;;5026866;28;20236;-71
2021/12/20 04:07:14;;;;;;;2.30;1.80;;;7.40;99.90;;;;;;5034550;28;20192;-73
2021/12/20 04:09:42;;;;;;;1.90;1.70;;;7.40;99.90;;;;;;5030139;28;20217;-72
2021/12/20 04:12:11;;;;;;;1.85;1.50;;;7.40;99.90;;;;;;5051331;28;20278;-72
2021/12/20 04:14:39;;;;;;;1.70;1.60;;;7.40;99.90;;;;;;5034821;28;20228;-72
2021/12/20 04:17:08;;;;;;;1.70;1.60;;;7.40;99.90;;;;;;5034283;28;20264;-72
2021/12/20 04:19:36;;;;;;;1.77;1.60;;;7.40;99.90;;;;;;5051370;28;20251;-72
2021/12/20 04:22:05;;;;;;;2.90;1.55;;;7.40;99.90;;;;;;5051018;28;20193;-71
2021/12/20 04:24:33;;;;;;;1.42;1.33;;;7.40;99.90;;;;;;5039660;28;20296;-71
2021/12/20 04:27:01;;;;;;;3.35;1.42;;;7.40;99.90;;;;;;5039797;28;20563;-72
2021/12/20 04:29:30;;;;;;;2.40;1.75;;;7.40;99.90;;;;;;5031013;28;20224;-73
2021/12/20 04:31:59;;;;;;;1.95;1.75;;;7.40;99.90;;;;;;5031957;28;20224;-72
2021/12/20 04:34:28;;;;;;;2.03;1.85;;;7.40;99.90;;;;;;5049600;28;20763;-72
2021/12/20 04:36:57;;;;;;;1.92;1.40;;;7.40;99.90;;;;;;5042616;28;20189;-72
2021/12/20 04:39:29;;;;;;;2.17;1.58;;;7.40;99.90;;;;;;5046561;28;20219;-72
2021/12/20 04:41:58;;;;;;;1.77;1.52;;;7.40;99.90;;;;;;5051746;28;20227;-71
2021/12/20 04:44:26;;;;;;;1.77;1.50;;;7.40;99.90;;;;;;5037707;28;20213;-72
2021/12/20 04:46:54;;;;;;;1.52;1.27;;;7.50;99.90;;;;;;5048255;28;20274;-73
2021/12/20 04:49:24;;;;;;;1.65;1.55;;;7.40;99.90;;;;;;5032276;28;20281;-73
2021/12/20 04:51:55;;;;;;;1.58;1.48;;;7.40;99.90;;;;;;5039914;28;20255;-72
2021/12/20 04:54:23;;;;;;;2.05;1.38;;;7.40;99.90;;;;;;5042078;28;20228;-71
2021/12/20 04:56:51;;;;;;;1.58;1.20;;;7.40;99.90;;;;;;5042757;28;20722;-73
2021/12/20 04:59:19;;;;;;;2.70;1.83;;;7.40;99.90;;;;;;5033964;28;20213;-72
2021/12/20 05:01:47;;;;;;;1.92;1.73;;;7.40;99.90;;;;;;5031496;28;20263;-72
2021/12/20 05:04:15;;;;;;;1.50;1.40;;;7.40;99.90;;;;;;5031060;28;20218;-72
2021/12/20 05:06:44;;;;;;;2.55;1.90;;;7.40;99.90;;;;;;5046601;28;20220;-71
2021/12/20 05:09:13;;;;;;;2.40;1.58;;;7.40;99.90;;;;;;5031471;28;20286;-72
2021/12/20 05:11:47;;;;;;;3.08;1.88;;;7.40;99.90;;;;;;5018520;28;20623;-73
2021/12/20 05:14:15;;;;;;;1.83;1.65;;;7.40;99.90;;;;;;5036010;28;20635;-71
2021/12/20 05:16:44;;;;;;;1.50;1.23;;;7.40;99.90;;;;;;5028428;28;20194;-72
2021/12/20 05:19:12;;;;;;;2.97;1.63;;;7.40;99.90;;;;;;5049795;28;20602;-73
2021/12/20 05:21:40;;;;;;;1.95;1.65;;;7.40;99.90;;;;;;5049931;28;20302;-72
2021/12/20 05:24:08;;;;;;;2.85;1.48;;;7.40;99.90;;;;;;5034401;28;20244;-72
2021/12/20 05:26:38;;;;;;;2.13;1.80;;;7.40;99.90;;;;;;5054777;28;20193;-72
2021/12/20 05:29:07;;;;;;;1.92;1.50;;;7.40;99.90;;;;;;5043753;28;20255;-73
2021/12/20 05:31:35;;;;;;;2.13;1.92;;;7.40;99.90;;;;;;5035197;28;20269;-73
2021/12/20 05:34:05;;;;;;;1.40;1.17;;;7.40;99.90;;;;;;5051517;28;20243;-72
2021/12/20 05:36:33;;;;;;;1.60;1.50;;;7.40;99.90;;;;;;5049097;28;20601;-72
2021/12/20 05:39:02;;;;;;;2.30;1.80;;;7.40;99.90;;;;;;5032179;28;20257;-72
2021/12/20 05:41:31;;;;;;;2.05;1.40;;;7.40;99.90;;;;;;5041046;28;20221;-72
2021/12/20 05:44:00;;;;;;;2.47;1.50;;;7.40;99.90;;;;;;5049815;28;20282;-73
2021/12/20 05:46:28;;;;;;;1.70;1.60;;;7.40;99.90;;;;;;5039854;28;20248;-71
2021/12/20 05:48:56;;;;;;;2.92;1.15;;;7.40;99.90;;;;;;5045114;28;20282;-72
2021/12/20 05:51:25;;;;;;;2.85;1.63;;;7.40;99.90;;;;;;5047232;28;20218;-73
2021/12/20 05:53:54;;;;;;;1.50;1.35;;;7.40;99.90;;;;;;5037853;28;20221;-72
2021/12/20 05:56:22;;;;;;;1.83;1.40;;;7.40;99.90;;;;;;5050114;28;20209;-72
2021/12/20 05:58:50;;;;;;;1.23;1.05;;;7.40;99.90;;;;;;5040525;28;20637;-72
2021/12/20 06:01:19;;;;;;;1.73;1.40;;;7.40;99.90;;;;;;5034916;28;20241;-72
2021/12/20 06:03:47;;;;;;;2.83;1.73;;;7.40;99.90;;;;;;5034259;28;20275;-71
2021/12/20 06:06:15;;;;;;;2.53;1.85;;;7.40;99.90;;;;;;5050865;28;20244;-72
2021/12/20 06:08:43;;;;;;;1.58;1.48;;;7.40;99.90;;;;;;5023585;28;20259;-72
2021/12/20 06:11:11;;;;;;;1.58;1.20;;;7.40;99.90;;;;;;5035039;28;20287;-73
2021/12/20 06:13:39;;;;;;;2.28;1.60;;;7.40;99.90;;;;;;5040348;28;20248;-72
2021/12/20 06:16:08;;;;;;;2.00;1.80;;;7.40;99.90;;;;;;5033861;28;20217;-72
2021/12/20 06:18:37;;;;;;;1.42;1.20;;;7.40;99.90;;;;;;5052787;28;20233;-73
2021/12/20 06:21:05;;;;;;;1.70;1.60;;;7.40;99.90;;;;;;5037325;28;20214;-72
2021/12/20 06:23:33;;;;;;;1.40;1.10;;;7.40;99.90;;;;;;5032581;28;20254;-72
2021/12/20 06:26:01;;;;;;;2.30;1.65;;;7.40;99.90;;;;;;5052399;28;20189;-73
2021/12/20 06:28:30;;;;;;;1.73;1.50;;;7.40;99.90;;;;;;5022474;28;20274;-72
2021/12/20 06:30:58;;;;;;;1.52;1.42;;;7.40;99.90;;;;;;5034027;28;20217;-73
2021/12/20 06:33:26;;;;;;;2.05;1.85;;;7.40;99.90;;;;;;5053302;28;20265;-72
2021/12/20 06:35:55;;;;;;;1.35;1.10;;;7.40;99.90;;;;;;5035665;28;20308;-72
2021/12/20 06:38:24;;;;;;;1.65;1.30;;;7.40;99.90;;;;;;5037500;28;20193;-72
2021/12/20 06:40:53;;;;;;;2.25;1.45;;;7.40;99.90;;;;;;5053348;28;20247;-72
2021/12/20 06:43:21;;;;;;;2.00;1.50;;;7.40;99.90;;;;;;5040944;28;20541;-71
2021/12/20 06:45:50;;;;;;;1.67;1.50;;;7.40;99.90;;;;;;5046887;28;20211;-71
2021/12/20 06:48:18;;;;;;;2.58;1.60;;;7.40;99.90;;;;;;5038964;28;20190;-72
2021/12/20 06:50:46;;;;;;;5.90;2.35;;;7.40;99.90;;;;;;5033352;28;20267;-72
2021/12/20 06:53:15;;;;;;;1.75;1.60;;;7.40;99.90;;;;;;5033549;28;20194;-71
2021/12/20 06:55:43;;;;;;;1.92;1.42;;;7.40;99.90;;;;;;5053152;28;20208;-72
2021/12/20 06:58:12;;;;;;;1.85;1.25;;;7.40;99.90;;;;;;5042197;28;20191;-72
2021/12/20 07:00:41;;;;;;;2.17;1.30;;;7.40;99.90;;;;;;5030753;28;20213;-72
2021/12/20 07:03:09;;;;;;;1.30;1.15;;;7.40;99.90;;;;;;5044652;28;20601;-72
2021/12/20 07:05:37;;;;;;;2.08;1.25;;;7.40;99.90;;;;;;5049229;28;20254;-72
2021/12/20 07:08:06;;;;;;;2.35;1.63;;;7.40;99.90;;;;;;5050702;28;20563;-73
2021/12/20 07:10:35;;;;;;;1.58;1.40;;;7.40;99.90;;;;;;5028704;28;20291;-73
2021/12/20 07:13:07;;;;;;;2.15;1.50;;;7.40;99.90;;;;;;5019242;28;20201;-73
2021/12/20 07:15:35;;;;;;;3.05;1.58;;;7.40;99.90;;;;;;5042578;28;20224;-71
2021/12/20 07:18:03;;;;;;;2.55;1.42;;;7.40;99.90;;;;;;5042150;28;20210;-72
2021/12/20 07:20:32;;;;;;;1.50;1.35;;;7.40;99.90;;;;;;5046134;28;20256;-72
2021/12/20 07:23:00;;;;;;;1.50;1.30;;;7.40;99.90;;;;;;5051746;28;20193;-70
2021/12/20 07:25:28;;;;;;;1.70;1.50;;;7.40;99.90;;;;;;5036682;28;20216;-71
2021/12/20 07:27:58;;;;;;;3.42;1.58;;;7.40;99.90;;;;;;5044488;28;20194;-71
2021/12/20 07:30:26;;;;;;;3.28;1.80;;;7.40;99.90;;;;;;5045212;28;20766;-72
2021/12/20 07:32:54;;;;;;;2.47;1.40;;;7.40;99.90;;;;;;5036061;28;20194;-71
2021/12/20 07:35:23;;;;;;;3.17;2.15;;;7.40;99.90;;;;;;5048995;28;20248;-71
2021/12/20 07:37:54;;;;;;;1.55;1.30;;;7.40;99.90;;;;;;5032353;28;20187;-71
2021/12/20 07:40:22;;;;;;;2.00;1.40;;;7.30;99.90;;;;;;5048672;28;20266;-72
2021/12/20 07:42:50;;;;;;;2.75;1.40;;;7.30;99.90;;;;;;5044898;28;20193;-71
2021/12/20 07:45:20;;;;;;;1.30;1.20;;;7.40;99.90;;;;;;5035193;28;20209;-72
2021/12/20 07:47:49;;;;;;;3.80;1.80;;;7.40;99.90;;;;;;5032220;28;20186;-73
2021/12/20 07:50:19;;;;;;;3.20;1.90;;;7.30;99.90;;;;;;5041263;28;20770;-72
2021/12/20 07:52:48;;;;;;;2.90;1.63;;;7.30;99.90;;;;;;5059028;28;20247;-73
2021/12/20 07:55:17;;;;;;;2.95;1.52;;;7.40;99.90;;;;;;5037072;28;20299;-72
2021/12/20 07:57:45;;;;;;;2.08;1.50;;;7.40;99.90;;;;;;5054359;28;20234;-73
2021/12/20 08:00:14;;;;;;;2.75;1.55;;;7.30;99.90;;;;;;5045811;28;20234;-73
2021/12/20 08:02:44;;;;;;;1.73;1.60;;;7.40;99.90;;;;;;5050868;28;20194;-72
2021/12/20 08:05:14;;;;;;;1.40;0.90;;;7.30;99.90;;;;;;5045263;28;20729;-72
2021/12/20 08:07:45;;;;;;;1.88;1.35;;;7.30;99.90;;;;;;5051527;28;20198;-72
2021/12/20 08:10:13;;;;;;;2.88;1.35;;;7.40;99.90;;;;;;5037858;28;20791;-73
2021/12/20 08:12:41;;;;;;;2.38;1.15;;;7.30;99.90;;;;;;5051810;28;20203;-72
2021/12/20 08:15:10;;;;;;;2.08;1.42;;;7.30;99.90;;;;;;5036922;28;20220;-72
2021/12/20 08:17:38;;;;;;;2.15;1.20;;;7.30;99.90;;;;;;5037302;28;20219;-73
2021/12/20 08:20:10;;;;;;;1.88;1.60;;;7.30;99.90;;;;;;5051977;28;20231;-72
2021/12/20 08:22:39;;;;;;;3.10;1.55;;;7.30;99.90;;;;;;5049463;28;20243;-73
2021/12/20 08:25:09;;;;;;;1.98;1.45;;;7.30;99.90;;;;;;5045587;28;20711;-72
2021/12/20 08:27:37;;;;;;;1.60;1.30;;;7.40;99.90;;;;;;5031050;28;20221;-72
2021/12/20 08:30:06;;;;;;;1.42;1.13;;;7.30;99.90;;;;;;5043535;28;20305;-73
2021/12/20 08:32:36;;;;;;;1.92;1.45;;;7.30;99.90;;;;;;5051749;28;20189;-73
2021/12/20 08:35:05;;;;;;;2.83;1.23;;;7.30;99.90;;;;;;5044238;28;20682;-72
2021/12/20 08:37:34;;;;;;;3.00;1.75;;;7.30;99.90;;;;;;5037418;28;20219;-72
2021/12/20 08:40:03;;;;;;;2.53;1.48;;;7.30;99.90;;;;;;5054498;28;20275;-72
2021/12/20 08:42:31;;;;;;;2.17;1.60;;;7.30;99.90;;;;;;5038629;28;20185;-72
2021/12/20 08:44:59;;;;;;;1.50;1.40;;;7.30;99.90;;;;;;5042509;28;20216;-71
2021/12/20 08:47:32;;;;;;;3.28;1.55;;;7.30;99.90;;;;;;5050667;28;20237;-73
2021/12/20 08:50:01;;;;;;;4.18;1.42;;;7.30;99.90;;;;;;5049385;28;20232;-73
2021/12/20 08:52:31;;;;;;;2.38;1.40;;;7.30;99.90;;;;;;5036846;28;20194;-71
2021/12/20 08:55:00;;;;;;;1.55;1.08;;;7.30;99.90;;;;;;5042253;28;20254;-73
2021/12/20 08:57:28;;;;;;;1.60;0.93;;;7.30;99.90;;;;;;5031706;28;20197;-72
2021/12/20 08:59:56;;;;;;;2.75;1.30;;;7.30;99.90;;;;;;5029964;28;20278;-72
2021/12/20 09:02:24;;;;;;;2.30;1.38;;;7.30;99.90;;;;;;5042207;28;20238;-71
2021/12/20 09:04:53;;;;;;;1.60;1.25;;;7.30;99.90;;;;;;5037618;28;20226;-72
2021/12/20 09:07:21;;;;;;;1.40;1.25;;;7.30;99.90;;;;;;5044448;28;20187;-72
2021/12/20 09:09:49;;;;;;;3.15;1.20;;;7.30;99.90;;;;;;5050718;28;20250;-72
2021/12/20 09:12:20;;;;;;;1.70;1.30;;;7.30;99.90;;;;;;5050029;28;20192;-73
2021/12/20 09:14:49;;;;;;;2.33;1.65;;;7.30;99.90;;;;;;5040603;28;20312;-73
2021/12/20 09:17:18;;;;;;;2.03;1.40;;;7.30;99.90;;;;;;5017855;28;20208;-72
2021/12/20 09:19:46;;;;;;;2.78;1.52;;;7.30;99.90;;;;;;5038398;28;20284;-72
2021/12/20 09:22:14;;;;;;;2.85;1.73;;;7.30;99.90;;;;;;5045840;28;20227;-73
2021/12/20 09:24:42;;;;;;;1.63;1.35;;;7.30;99.90;;;;;;5035757;28;20227;-72
2021/12/20 09:27:12;;;;;;;3.10;1.25;;;7.30;99.90;;;;;;5046736;28;20671;-72
2021/12/20 09:29:42;;;;;;;2.22;1.23;;;7.30;99.90;;;;;;5030246;28;20304;-73
2021/12/20 09:32:10;;;;;;;1.95;1.75;;;7.30;99.90;;;;;;5037463;28;20197;-72
2021/12/20 09:34:38;;;;;;;1.60;1.02;;;7.30;99.90;;;;;;5043948;28;20243;-72
2021/12/20 09:37:08;;;;;;;3.42;1.65;;;7.30;99.90;;;;;;5044265;28;20244;-71
2021/12/20 09:39:39;;;;;;;1.80;1.20;;;7.40;99.90;;;;;;5030051;28;20233;-72
2021/12/20 09:42:09;;;;;;;2.20;1.60;;;7.30;99.90;;;;;;5032373;28;20254;-73
2021/12/20 09:44:38;;;;;;;2.13;1.27;;;7.30;99.90;;;;;;5029925;28;20307;-73
2021/12/20 09:47:07;;;;;;;2.55;1.63;;;7.30;99.90;;;;;;5041064;28;20244;-72
2021/12/20 09:49:36;;;;;;;2.70;1.58;;;7.30;99.90;;;;;;5047959;28;20239;-72
2021/12/20 09:52:05;;;;;;;7.20;3.85;;;7.30;99.90;;;;;;5047427;28;20246;-72
2021/12/20 09:54:34;;;;;;;11.55;3.83;;;7.30;99.90;;;;;;5042579;28;20905;-72
2021/12/20 09:57:06;;;;;;;5.90;3.08;;;7.40;99.90;;;;;;5037538;28;20718;-72
2021/12/20 09:59:38;;;;;;;7.97;2.85;;;7.30;99.90;;;;;;5030477;28;20217;-72
2021/12/20 10:02:10;;;;;;;7.82;3.72;;;7.30;99.90;;;;;;5030078;28;20201;-73
2021/12/20 10:04:38;;;;;;;7.22;3.25;;;7.30;99.90;;;;;;5048652;28;20959;-72
2021/12/20 10:07:06;;;;;;;8.15;2.55;;;7.30;99.90;;;;;;5047360;28;20656;-73
2021/12/20 10:09:36;;;;;;;8.00;3.20;;;7.30;99.90;;;;;;5050350;28;20216;-72
2021/12/20 10:12:12;;;;;;;10.52;3.20;;;7.30;99.90;;;;;;5056908;28;20224;-72
2021/12/20 10:14:59;;;;;;;5.90;2.90;;;7.30;99.90;;;;;;5026688;28;20227;-71
2021/12/20 10:17:31;;;;;;;6.47;3.13;;;7.30;99.90;;;;;;5053956;28;20746;-72
2021/12/20 10:20:16;;;;;;;5.35;3.85;;;7.30;99.90;;;;;;5039062;28;20223;-71
2021/12/20 10:22:45;;;;;;;4.40;2.25;;;7.30;99.90;;;;;;5040957;28;20197;-72
2021/12/20 10:25:25;;;;;;;6.15;2.63;;;7.40;99.90;;;;;;5040188;28;20303;-72
2021/12/20 10:27:54;;;;;;;5.03;1.98;;;7.30;99.90;;;;;;5041154;28;20275;-72
2021/12/20 10:30:28;;;;;;;3.60;2.30;;;7.30;99.90;;;;;;5054971;28;20745;-72
2021/12/20 10:32:58;;;;;;;2.75;2.20;;;7.30;99.90;;;;;;5034642;28;20295;-72
2021/12/20 10:35:39;;;;;;;3.28;2.38;;;7.30;99.90;;;;;;5051780;28;20212;-72
2021/12/20 10:38:21;;;;;;;6.10;2.05;;;7.30;99.90;;;;;;5043278;28;20672;-71
2021/12/20 10:40:52;;;;;;;4.40;2.38;;;7.30;99.90;;;;;;5041820;28;20301;-72
2021/12/20 10:43:23;;;;;;;3.75;2.38;;;7.30;99.90;;;;;;5027115;28;20207;-72
2021/12/20 10:45:52;;;;;;;5.47;1.98;;;7.30;99.90;;;;;;5042153;28;20225;-72
2021/12/20 10:48:43;;;;;;;2.67;1.50;;;7.30;99.90;;;;;;5045902;28;20221;-72
2021/12/20 10:51:24;;;;;;;3.15;1.73;;;7.30;99.90;;;;;;5033672;28;20220;-71
2021/12/20 10:53:58;;;;;;;3.53;1.90;;;7.30;99.90;;;;;;5015549;28;20612;-72
2021/12/20 10:56:28;;;;;;;4.20;2.65;;;7.30;99.90;;;;;;5032935;28;20184;-72
2021/12/20 10:58:58;;;;;;;4.07;2.25;;;7.30;99.90;;;;;;5032723;28;20229;-72
2021/12/20 11:04:19;;;;;;;5.05;2.00;;;7.30;99.90;;;;;;5033609;28;20217;-71
2021/12/20 11:07:03;;;;;;;5.30;2.90;;;7.30;99.90;;;;;;5033031;28;20250;-72
2021/12/20 11:09:32;;;;;;;5.60;2.13;;;7.30;99.90;;;;;;5026809;28;20216;-71
2021/12/20 11:12:03;;;;;;;2.40;1.60;;;7.30;99.90;;;;;;5042739;28;20671;-71
2021/12/20 11:14:34;;;;;;;2.00;1.40;;;7.30;99.90;;;;;;5033498;28;20221;-73
2021/12/20 11:17:06;;;;;;;5.07;1.90;;;7.30;99.90;;;;;;5026698;28;20660;-72
2021/12/20 11:19:37;;;;;;;2.58;2.08;;;7.30;99.90;;;;;;5038944;28;20229;-71
2021/12/20 11:22:08;;;;;;;5.20;2.22;;;7.30;99.90;;;;;;5032696;28;20197;-72
2021/12/20 11:24:43;;;;;;;3.33;2.00;;;7.30;99.90;;;;;;5025205;28;20620;-72
2021/12/20 11:27:15;;;;;;;3.72;1.65;;;7.30;99.90;;;;;;5021099;28;20196;-73
2021/12/20 11:29:45;;;;;;;3.50;2.42;;;7.30;99.90;;;;;;5024044;28;20217;-73
2021/12/20 11:32:14;;;;;;;4.03;1.52;;;7.30;99.90;;;;;;5029994;28;20240;-73
2021/12/20 11:34:44;;;;;;;4.50;1.92;;;7.30;99.90;;;;;;5031526;28;20957;-73
2021/12/20 11:37:13;;;;;;;3.80;2.10;;;7.30;99.90;;;;;;5030666;28;20263;-73
2021/12/20 11:39:43;;;;;;;2.20;1.52;;;7.30;99.90;;;;;;5021949;28;20229;-72
2021/12/20 11:42:12;;;;;;;3.65;1.60;;;7.30;99.90;;;;;;5014461;28;20220;-72
2021/12/20 11:44:42;;;;;;;3.33;1.85;;;7.30;99.90;;;;;;5021722;28;20329;-72
2021/12/20 11:47:23;;;;;;;2.83;1.70;;;7.30;99.90;;;;;;5014810;28;20792;-74
2021/12/20 11:50:01;;;;;;;3.28;1.52;;;7.30;99.90;;;;;;5031424;28;20232;-74
2021/12/20 11:52:34;;;;;;;4.40;1.95;;;7.30;99.90;;;;;;5016928;28;20195;-74
2021/12/20 11:55:17;;;;;;;2.53;1.92;;;7.30;99.90;;;;;;5028050;28;20217;-73
2021/12/20 11:57:46;;;;;;;2.45;1.20;;;7.30;99.90;;;;;;5025175;28;20243;-73
2021/12/20 12:00:24;;;;;;;3.38;1.83;;;7.30;99.90;;;;;;5013786;28;20278;-72
2021/12/20 12:02:55;;;;;;;1.85;1.70;;;7.30;99.90;;;;;;5030989;28;20578;-73
2021/12/20 12:05:37;;;;;;;2.70;1.88;;;7.30;99.90;;;;;;5019190;28;20697;-73
2021/12/20 12:08:26;;;;;;;2.08;1.90;;;7.30;99.90;;;;;;5013306;28;20195;-72
2021/12/20 12:10:56;;;;;;;6.75;4.28;;;7.40;99.90;;;;;;5018873;28;20578;-72
2021/12/20 12:13:27;;;;;;;4.30;1.80;;;7.40;99.90;;;;;;5025593;28;20193;-72
2021/12/20 12:16:01;;;;;;;3.92;1.98;;;7.40;99.90;;;;;;5008868;28;20209;-72
2021/12/20 12:18:47;;;;;;;3.97;1.80;;;7.30;99.90;;;;;;5023594;28;20225;-71
2021/12/20 12:21:40;;;;;;;3.97;1.85;;;7.30;99.90;;;;;;5016004;28;20207;-72
2021/12/20 12:24:45;;;;;;;3.95;1.48;;;7.40;99.90;;;;;;5020696;28;20992;-72
2021/12/20 12:27:21;;;;;;;6.05;2.90;;;7.40;99.90;;;;;;5022957;28;20194;-71
2021/12/20 12:30:23;;;;;;;7.70;3.85;;;7.40;99.90;;;;;;5009570;28;20227;-72
2021/12/20 12:33:23;;;;;;;5.75;3.20;;;7.30;99.90;;;;;;4994449;28;20579;-73
2021/12/20 12:35:54;;;;;;;8.00;3.65;;;7.30;99.90;;;;;;4994486;28;20260;-73
2021/12/20 12:38:27;;;;;;;10.15;3.75;;;7.30;99.90;;;;;;5012151;28;20206;-72
2021/12/20 12:41:17;;;;;;;5.93;3.33;;;7.30;99.90;;;;;;5012245;28;20210;-72
2021/12/20 12:43:54;;;;;;;8.40;2.80;;;7.30;99.90;;;;;;5016942;28;20630;-73
2021/12/20 12:46:53;;;;;;;7.10;2.80;;;7.30;99.90;;;;;;5031668;28;20659;-72
2021/12/20 12:49:39;;;;;;;4.43;2.95;;;7.30;99.90;;;;;;5003719;28;20229;-72
2021/12/20 12:52:11;;;;;;;6.35;2.78;;;7.30;99.90;;;;;;5012216;28;20199;-72
2021/12/20 12:55:05;;;;;;;5.63;2.70;;;7.30;99.90;;;;;;5011137;28;20291;-72
2021/12/20 12:57:38;;;;;;;12.07;3.53;;;7.30;99.90;;;;;;5011992;28;20293;-73
2021/12/20 13:00:32;;;;;;;5.32;2.40;;;7.30;99.90;;;;;;5024915;28;20431;-73
2021/12/20 13:03:16;;;;;;;2.38;2.03;;;7.30;99.90;;;;;;5036634;28;20192;-72
2021/12/20 13:05:44;;;;;;;5.82;2.13;;;7.30;99.90;;;;;;5050446;28;20216;-72
2021/12/20 13:08:13;;;;;;;6.60;2.60;;;7.40;99.90;;;;;;5045523;28;20234;-72
2021/12/20 13:10:44;;;;;;;4.88;2.50;;;7.40;99.90;;;;;;5013891;28;20216;-72
2021/12/20 13:13:20;;;;;;;5.65;3.00;;;7.40;99.90;;;;;;5013435;28;20188;-72
2021/12/20 13:15:53;;;;;;;3.42;2.20;;;7.40;99.90;;;;;;5048068;28;20259;-73
2021/12/20 13:18:28;;;;;;;5.45;1.95;;;7.40;99.90;;;;;;5049252;28;20274;-72
2021/12/20 13:21:01;;;;;;;7.20;2.70;;;7.40;99.90;;;;;;5014036;28;20658;-73
2021/12/20 13:23:31;;;;;;;6.45;2.25;;;7.40;99.90;;;;;;5030524;28;20740;-73
2021/12/20 13:26:03;;;;;;;4.93;1.85;;;7.40;99.90;;;;;;5031215;28;20193;-73
2021/12/20 13:28:34;;;;;;;6.97;2.60;;;7.40;99.90;;;;;;5013105;28;20314;-72
2021/12/20 13:31:05;;;;;;;4.88;2.00;;;7.40;99.90;;;;;;5013309;28;20285;-72
2021/12/20 13:33:36;;;;;;;3.00;2.05;;;7.40;99.90;;;;;;5011155;28;20236;-72